createdAt,value
2023-03-01T00:02:25.561Z,17.67
2023-03-01T00:05:35.271Z,17.97
2023-03-01T00:08:44.657Z,16.87
2023-03-01T00:11:55.500Z,15.27
2023-03-01T00:14:37.983Z,17.57
2023-03-01T00:17:05.103Z,16.90
2023-03-01T00:19:33.452Z,17.73
2023-03-01T00:22:00.504Z,16.53
2023-03-01T00:24:27.640Z,16.57
2023-03-01T00:26:56.374Z,16.50
2023-03-01T00:29:24.397Z,16.30
2023-03-01T00:31:51.567Z,21.42
2023-03-01T00:34:18.629Z,18.83
2023-03-01T00:36:45.648Z,17.83
2023-03-01T00:39:14.388Z,18.07
2023-03-01T00:41:41.605Z,17.43
2023-03-01T00:44:08.602Z,16.40
2023-03-01T00:46:36.084Z,16.90
2023-03-01T00:49:03.284Z,17.50
2023-03-01T00:51:30.608Z,17.10
2023-03-01T00:53:59.953Z,17.47
2023-03-01T00:56:27.318Z,16.87
2023-03-01T00:58:54.387Z,16.47
2023-03-01T01:01:22.902Z,20.73
2023-03-01T01:04:03.507Z,18.27
2023-03-01T01:06:34.972Z,17.60
2023-03-01T01:09:02.147Z,18.53
2023-03-01T01:11:30.234Z,17.33
2023-03-01T01:13:57.577Z,16.83
2023-03-01T01:16:26.134Z,16.10
2023-03-01T01:18:53.607Z,16.00
2023-03-01T01:21:22.119Z,16.57
2023-03-01T01:23:49.204Z,16.87
2023-03-01T01:26:17.972Z,17.23
2023-03-01T01:28:45.115Z,16.70
2023-03-01T01:31:12.461Z,16.03
2023-03-01T01:33:39.579Z,17.43
2023-03-01T01:36:07.477Z,15.77
2023-03-01T01:38:34.815Z,16.60
2023-03-01T01:41:01.824Z,15.70
2023-03-01T01:43:30.196Z,16.87
2023-03-01T01:46:16.170Z,19.85
2023-03-01T01:48:45.087Z,17.60
2023-03-01T01:51:14.465Z,17.37
2023-03-01T01:53:42.037Z,15.80
2023-03-01T01:56:10.596Z,16.53
2023-03-01T01:58:37.926Z,15.83
2023-03-01T02:01:05.507Z,15.57
2023-03-01T02:03:34.601Z,15.97
2023-03-01T02:06:29.919Z,16.03
2023-03-01T02:08:59.603Z,15.20
2023-03-01T02:11:27.059Z,15.73
2023-03-01T02:13:55.714Z,16.97
2023-03-01T02:16:22.945Z,15.20
2023-03-01T02:18:51.535Z,16.07
2023-03-01T02:21:33.571Z,21.33
2023-03-01T02:24:03.091Z,15.63
2023-03-01T02:26:40.828Z,15.27
2023-03-01T02:29:08.143Z,14.67
2023-03-01T02:31:44.250Z,16.33
2023-03-01T02:34:13.827Z,15.40
2023-03-01T02:36:47.250Z,15.10
2023-03-01T02:39:21.462Z,15.27
2023-03-01T02:41:49.879Z,16.10
2023-03-01T02:44:17.409Z,16.03
2023-03-01T02:46:51.818Z,16.00
2023-03-01T02:49:23.611Z,16.03
2023-03-01T02:52:08.554Z,14.97
2023-03-01T02:54:38.123Z,15.50
2023-03-01T02:57:05.184Z,14.93
2023-03-01T02:59:34.621Z,17.73
2023-03-01T03:02:02.133Z,15.13
2023-03-01T03:04:29.169Z,15.97
2023-03-01T03:06:56.208Z,15.67
2023-03-01T03:09:23.254Z,15.47
2023-03-01T03:11:50.322Z,13.93
2023-03-01T03:14:18.222Z,15.23
2023-03-01T03:16:51.136Z,14.57
2023-03-01T03:19:19.628Z,13.83
2023-03-01T03:21:46.735Z,15.23
2023-03-01T03:24:13.823Z,15.70
2023-03-01T03:26:40.813Z,16.87
2023-03-01T03:29:07.818Z,16.03
2023-03-01T03:31:35.283Z,15.87
2023-03-01T03:34:02.341Z,15.80
2023-03-01T03:36:29.503Z,14.53
2023-03-01T03:38:56.785Z,15.73
2023-03-01T03:41:23.849Z,15.20
2023-03-01T03:43:50.836Z,15.43
2023-03-01T03:46:18.051Z,15.37
2023-03-01T03:48:46.393Z,15.97
2023-03-01T03:51:17.500Z,15.80
2023-03-01T03:53:45.146Z,15.33
2023-03-01T03:56:12.428Z,15.07
2023-03-01T03:58:39.564Z,15.73
2023-03-01T04:01:06.673Z,14.47
2023-03-01T04:03:34.202Z,14.87
2023-03-01T04:06:01.793Z,15.03
2023-03-01T04:08:29.395Z,14.37
2023-03-01T04:11:22.002Z,15.57
2023-03-01T04:13:49.180Z,16.57
2023-03-01T04:16:16.230Z,15.83
2023-03-01T04:18:43.265Z,16.27
2023-03-01T04:21:11.266Z,16.60
2023-03-01T04:23:38.393Z,16.13
2023-03-01T04:26:05.677Z,16.50
2023-03-01T04:28:35.164Z,16.17
2023-03-01T04:31:14.259Z,18.17
2023-03-01T04:33:49.821Z,18.37
2023-03-01T04:36:18.455Z,17.60
2023-03-01T04:38:48.995Z,16.80
2023-03-01T04:41:18.200Z,15.90
2023-03-01T04:43:45.295Z,15.67
2023-03-01T04:46:15.655Z,15.80
2023-03-01T04:48:44.251Z,19.17
2023-03-01T04:51:14.346Z,16.90
2023-03-01T04:53:42.559Z,16.30
2023-03-01T04:56:09.249Z,16.27
2023-03-01T04:58:36.213Z,16.30
2023-03-01T05:01:15.956Z,15.77
2023-03-01T05:03:44.904Z,16.17
2023-03-01T05:06:12.701Z,16.10
2023-03-01T05:08:40.620Z,16.97
2023-03-01T05:11:09.805Z,17.57
2023-03-01T05:13:37.978Z,17.33
2023-03-01T05:16:06.112Z,16.87
2023-03-01T05:18:34.522Z,17.47
2023-03-01T05:21:10.534Z,17.80
2023-03-01T05:23:37.639Z,17.67
2023-03-01T05:26:09.407Z,16.43
2023-03-01T05:28:38.891Z,22.17
2023-03-01T05:31:10.462Z,17.87
2023-03-01T05:33:41.536Z,17.03
2023-03-01T05:36:10.571Z,17.17
2023-03-01T05:38:37.212Z,17.47
2023-03-01T05:41:04.139Z,17.60
2023-03-01T05:43:36.624Z,17.00
2023-03-01T05:46:03.288Z,18.33
2023-03-01T05:48:29.977Z,18.37
2023-03-01T05:51:01.653Z,17.60
2023-03-01T05:54:10.805Z,18.07
2023-03-01T05:57:21.215Z,16.77
2023-03-01T06:00:30.733Z,17.70
2023-03-01T06:03:40.081Z,16.43
2023-03-01T06:06:29.061Z,17.17
2023-03-01T06:09:12.103Z,17.57
2023-03-01T06:11:55.151Z,16.93
2023-03-01T06:14:37.859Z,17.10
2023-03-01T06:17:22.940Z,17.00
2023-03-01T06:20:07.603Z,17.63
2023-03-01T06:22:48.513Z,17.67
2023-03-01T06:25:35.063Z,16.77
2023-03-01T06:28:15.638Z,17.17
2023-03-01T06:30:56.170Z,18.17
2023-03-01T06:33:37.089Z,17.73
2023-03-01T06:36:19.641Z,16.97
2023-03-01T06:38:58.305Z,18.33
2023-03-01T06:41:39.205Z,20.15
2023-03-01T06:44:17.862Z,18.07
2023-03-01T06:46:58.309Z,17.60
2023-03-01T06:49:36.755Z,18.23
2023-03-01T06:52:32.114Z,17.47
2023-03-01T06:55:41.144Z,18.57
2023-03-01T06:58:50.167Z,17.83
2023-03-01T07:01:59.114Z,18.80
2023-03-01T07:05:08.033Z,18.53
2023-03-01T07:08:17.228Z,18.90
2023-03-01T07:10:46.438Z,17.97
2023-03-01T07:13:13.403Z,19.00
2023-03-01T07:15:42.199Z,19.87
2023-03-01T07:18:09.332Z,18.53
2023-03-01T07:20:36.419Z,19.87
2023-03-01T07:23:14.047Z,18.83
2023-03-01T07:25:47.459Z,19.10
2023-03-01T07:28:14.431Z,19.93
2023-03-01T07:30:41.494Z,21.03
2023-03-01T07:33:10.700Z,18.67
2023-03-01T07:36:20.441Z,18.73
2023-03-01T07:39:29.769Z,17.53
2023-03-01T07:42:38.763Z,19.00
2023-03-01T07:45:09.050Z,19.63
2023-03-01T07:48:18.116Z,19.57
2023-03-01T07:50:48.407Z,17.60
2023-03-01T07:53:18.699Z,18.30
2023-03-01T07:55:48.997Z,21.05
2023-03-01T07:58:19.233Z,19.93
2023-03-01T08:00:49.544Z,19.83
2023-03-01T08:03:19.883Z,18.80
2023-03-01T08:05:50.184Z,17.90
2023-03-01T08:08:20.396Z,17.07
2023-03-01T08:10:50.692Z,18.57
2023-03-01T08:13:23.340Z,19.60
2023-03-01T08:15:54.014Z,18.60
2023-03-01T08:18:37.362Z,19.13
2023-03-01T08:21:20.270Z,18.70
2023-03-01T08:24:01.074Z,18.60
2023-03-01T08:26:48.082Z,17.60
2023-03-01T08:29:55.969Z,17.57
2023-03-01T08:32:48.521Z,18.20
2023-03-01T08:35:15.668Z,18.63
2023-03-01T08:37:42.678Z,18.23
2023-03-01T08:40:10.993Z,17.80
2023-03-01T08:42:38.678Z,18.37
2023-03-01T08:45:05.898Z,17.40
2023-03-01T08:47:34.467Z,18.40
2023-03-01T08:50:01.871Z,17.70
2023-03-01T08:52:29.588Z,18.63
2023-03-01T08:54:56.584Z,18.63
2023-03-01T08:57:23.965Z,18.37
2023-03-01T08:59:50.989Z,18.17
2023-03-01T09:02:18.939Z,17.73
2023-03-01T09:04:46.105Z,17.97
2023-03-01T09:07:13.113Z,17.23
2023-03-01T09:09:40.155Z,18.83
2023-03-01T09:12:07.449Z,17.10
2023-03-01T09:14:34.477Z,18.27
2023-03-01T09:17:03.897Z,18.20
2023-03-01T09:19:31.081Z,18.53
2023-03-01T09:21:59.287Z,18.13
2023-03-01T09:24:26.771Z,18.13
2023-03-01T09:26:57.500Z,18.23
2023-03-01T09:29:24.744Z,18.87
2023-03-01T09:31:51.960Z,18.10
2023-03-01T09:34:24.032Z,17.20
2023-03-01T09:36:52.069Z,18.47
2023-03-01T09:39:19.252Z,18.77
2023-03-01T09:42:03.205Z,18.33
2023-03-01T09:44:43.265Z,19.60
2023-03-01T09:47:14.074Z,17.93
2023-03-01T09:49:43.314Z,17.83
2023-03-01T09:52:28.995Z,19.00
2023-03-01T09:54:59.471Z,18.47
2023-03-01T09:57:35.071Z,18.20
2023-03-01T10:00:02.077Z,18.63
2023-03-01T10:02:29.029Z,17.43
2023-03-01T10:04:59.144Z,18.17
2023-03-01T10:07:37.739Z,17.97
2023-03-01T10:10:08.306Z,18.43
2023-03-01T10:12:37.351Z,17.80
2023-03-01T10:15:13.408Z,18.17
2023-03-01T10:17:48.494Z,18.63
2023-03-01T10:20:23.623Z,18.87
2023-03-01T10:22:56.073Z,17.83
2023-03-01T10:25:37.878Z,21.88
2023-03-01T10:28:14.236Z,18.27
2023-03-01T10:30:43.280Z,17.87
2023-03-01T10:33:16.116Z,16.83
2023-03-01T10:35:43.286Z,18.43
2023-03-01T10:38:11.789Z,16.93
2023-03-01T10:40:53.165Z,17.03
2023-03-01T10:43:20.703Z,17.80
2023-03-01T10:45:48.089Z,17.63
2023-03-01T10:48:25.350Z,17.80
2023-03-01T10:51:06.178Z,18.07
2023-03-01T10:53:36.055Z,17.43
2023-03-01T10:56:10.649Z,17.83
2023-03-01T10:58:41.997Z,18.13
2023-03-01T11:01:18.398Z,17.83
2023-03-01T11:03:45.428Z,16.90
2023-03-01T11:06:12.420Z,17.40
2023-03-01T11:08:41.271Z,16.60
2023-03-01T11:11:14.944Z,15.40
2023-03-01T11:13:57.326Z,16.13
2023-03-01T11:16:25.924Z,16.53
2023-03-01T11:19:00.076Z,16.17
2023-03-01T11:21:28.742Z,17.33
2023-03-01T11:23:56.022Z,16.00
2023-03-01T11:26:23.039Z,15.57
2023-03-01T11:28:52.191Z,17.00
2023-03-01T11:31:20.172Z,16.27
2023-03-01T11:34:05.973Z,15.90
2023-03-01T11:36:47.006Z,15.50
2023-03-01T11:39:32.504Z,18.10
2023-03-01T11:42:19.185Z,15.60
2023-03-01T11:44:48.981Z,16.73
2023-03-01T11:47:32.719Z,15.80
2023-03-01T11:50:14.510Z,15.13
2023-03-01T11:53:04.798Z,14.80
2023-03-01T11:55:40.026Z,15.47
2023-03-01T11:58:25.970Z,16.13
2023-03-01T12:00:52.949Z,14.70
2023-03-01T12:03:32.541Z,16.10
2023-03-01T12:06:08.840Z,14.23
2023-03-01T12:08:44.358Z,15.03
2023-03-01T12:11:34.844Z,15.53
2023-03-01T12:14:19.561Z,17.77
2023-03-01T12:17:17.215Z,14.73
2023-03-01T12:20:10.813Z,16.23
2023-03-01T12:23:19.588Z,15.50
2023-03-01T12:26:14.480Z,16.30
2023-03-01T12:28:47.480Z,15.97
2023-03-01T12:31:26.394Z,16.27
2023-03-01T12:34:09.261Z,16.87
2023-03-01T12:36:54.555Z,16.87
2023-03-01T12:39:47.099Z,16.57
2023-03-01T12:42:26.227Z,15.47
2023-03-01T12:45:24.651Z,16.77
2023-03-01T12:48:13.108Z,15.30
2023-03-01T12:50:52.208Z,16.13
2023-03-01T12:53:24.566Z,16.83
2023-03-01T12:55:53.088Z,15.63
2023-03-01T12:58:43.636Z,16.60
2023-03-01T13:01:34.027Z,15.63
2023-03-01T13:04:19.103Z,16.73
2023-03-01T13:06:56.058Z,16.33
2023-03-01T13:10:03.565Z,16.30
2023-03-01T13:12:53.443Z,14.90
2023-03-01T13:15:22.826Z,15.70
2023-03-01T13:17:57.928Z,15.47
2023-03-01T13:20:35.793Z,15.47
2023-03-01T13:23:24.100Z,15.23
2023-03-01T13:25:59.905Z,14.60
2023-03-01T13:28:42.059Z,15.23
2023-03-01T13:31:21.012Z,15.67
2023-03-01T13:33:55.618Z,15.33
2023-03-01T13:36:47.122Z,15.30
2023-03-01T13:39:33.522Z,15.47
2023-03-01T13:42:01.241Z,15.67
2023-03-01T13:44:46.263Z,15.77
2023-03-01T13:47:15.684Z,15.87
2023-03-01T13:49:53.228Z,15.90
2023-03-01T13:52:42.518Z,15.83
2023-03-01T13:55:14.689Z,16.93
2023-03-01T13:57:44.955Z,15.67
2023-03-01T14:00:48.520Z,16.70
2023-03-01T14:03:20.749Z,16.17
2023-03-01T14:06:17.249Z,16.13
2023-03-01T14:08:46.571Z,15.57
2023-03-01T14:11:44.258Z,15.90
2023-03-01T14:14:39.997Z,16.13
2023-03-01T14:17:23.055Z,16.60
2023-03-01T14:19:57.030Z,16.80
2023-03-01T14:22:28.202Z,16.60
2023-03-01T14:25:00.782Z,16.13
2023-03-01T14:27:36.019Z,16.97
2023-03-01T14:30:21.248Z,16.00
2023-03-01T14:33:02.800Z,17.40
2023-03-01T14:35:32.643Z,17.23
2023-03-01T14:37:59.544Z,16.10
2023-03-01T14:40:30.332Z,15.67
2023-03-01T14:43:00.191Z,16.53
2023-03-01T14:45:30.174Z,17.20
2023-03-01T14:48:01.294Z,17.23
2023-03-01T14:50:33.854Z,16.47
2023-03-01T14:53:05.235Z,16.77
2023-03-01T14:55:39.639Z,17.97
2023-03-01T14:58:10.171Z,16.83
2023-03-01T15:00:37.821Z,16.50
2023-03-01T15:03:19.267Z,16.47
2023-03-01T15:05:45.985Z,17.03
2023-03-01T15:08:20.395Z,16.83
2023-03-01T15:11:08.993Z,16.33
2023-03-01T15:13:39.903Z,17.37
2023-03-01T15:16:16.305Z,17.07
2023-03-01T15:18:54.831Z,17.03
2023-03-01T15:21:28.804Z,17.40
2023-03-01T15:24:20.201Z,16.83
2023-03-01T15:26:55.198Z,16.33
2023-03-01T15:29:34.384Z,16.33
2023-03-01T15:32:07.295Z,17.40
2023-03-01T15:34:38.959Z,16.67
2023-03-01T15:37:40.772Z,17.33
2023-03-01T15:40:33.888Z,17.93
2023-03-01T15:43:01.632Z,17.20
2023-03-01T15:45:31.088Z,17.03
2023-03-01T15:48:02.360Z,15.60
2023-03-01T15:50:33.875Z,16.83
2023-03-01T15:53:02.159Z,15.53
2023-03-01T15:55:31.645Z,16.90
2023-03-01T15:58:16.879Z,17.27
2023-03-01T16:00:59.311Z,16.33
2023-03-01T16:03:27.126Z,16.37
2023-03-01T16:05:54.617Z,15.83
2023-03-01T16:08:21.415Z,16.60
2023-03-01T16:10:50.839Z,16.70
2023-03-01T16:13:18.612Z,15.80
2023-03-01T16:15:45.261Z,14.40
2023-03-01T16:18:12.612Z,16.27
2023-03-01T16:20:40.052Z,15.73
2023-03-01T16:23:08.433Z,16.73
2023-03-01T16:25:37.063Z,16.40
2023-03-01T16:28:09.395Z,16.27
2023-03-01T16:30:37.337Z,16.30
2023-03-01T16:33:19.061Z,15.80
2023-03-01T16:35:51.311Z,19.33
2023-03-01T16:38:17.891Z,16.97
2023-03-01T16:40:49.389Z,16.83
2023-03-01T16:43:16.078Z,15.47
2023-03-01T16:45:45.513Z,16.00
2023-03-01T16:48:12.632Z,15.43
2023-03-01T16:50:39.305Z,16.57
2023-03-01T16:53:06.543Z,16.53
2023-03-01T16:55:33.920Z,16.73
2023-03-01T16:58:00.811Z,16.07
2023-03-01T17:00:27.987Z,16.60
2023-03-01T17:02:55.097Z,16.53
2023-03-01T17:05:25.871Z,15.33
2023-03-01T17:07:52.778Z,15.70
2023-03-01T17:10:19.480Z,18.25
2023-03-01T17:12:49.810Z,15.97
2023-03-01T17:15:16.473Z,20.37
2023-03-01T17:17:43.117Z,18.40
2023-03-01T17:20:11.278Z,16.57
2023-03-01T17:22:38.877Z,16.30
2023-03-01T17:25:09.438Z,15.00
2023-03-01T17:27:37.833Z,17.07
2023-03-01T17:30:05.699Z,16.93
2023-03-01T17:32:32.376Z,15.90
2023-03-01T17:34:59.063Z,15.83
2023-03-01T17:37:25.659Z,15.37
2023-03-01T17:39:52.228Z,16.57
2023-03-01T17:42:18.835Z,16.60
2023-03-01T17:44:45.526Z,16.17
2023-03-01T17:47:12.099Z,15.77
2023-03-01T17:49:38.702Z,18.60
2023-03-01T17:52:05.484Z,16.43
2023-03-01T17:54:33.357Z,16.93
2023-03-01T17:57:00.505Z,16.07
2023-03-01T17:59:32.748Z,17.03
2023-03-01T18:02:01.337Z,16.57
2023-03-01T18:04:28.908Z,16.30
2023-03-01T18:06:56.083Z,16.30
2023-03-01T18:09:22.647Z,15.83
2023-03-01T18:11:49.203Z,15.67
2023-03-01T18:14:15.804Z,15.67
2023-03-01T18:16:42.583Z,15.97
2023-03-01T18:19:11.574Z,15.60
2023-03-01T18:21:38.162Z,15.83
2023-03-01T18:24:05.144Z,19.73
2023-03-01T18:26:32.065Z,16.77
2023-03-01T18:29:01.185Z,17.40
2023-03-01T18:31:28.255Z,16.20
2023-03-01T18:33:55.717Z,15.87
2023-03-01T18:36:29.167Z,16.00
2023-03-01T18:38:56.731Z,16.60
2023-03-01T18:41:27.973Z,17.30
2023-03-01T18:43:55.944Z,17.47
2023-03-01T18:46:23.321Z,16.70
2023-03-01T18:48:51.329Z,16.97
2023-03-01T18:51:20.896Z,16.73
2023-03-01T18:53:48.161Z,17.37
2023-03-01T18:56:15.318Z,17.30
2023-03-01T18:58:43.094Z,15.83
2023-03-01T19:01:16.091Z,17.17
2023-03-01T19:03:42.823Z,19.80
2023-03-01T19:06:09.873Z,17.17
2023-03-01T19:08:36.622Z,17.23
2023-03-01T19:11:05.727Z,16.90
2023-03-01T19:13:34.777Z,17.13
2023-03-01T19:16:05.834Z,17.20
2023-03-01T19:18:32.868Z,17.90
2023-03-01T19:21:03.899Z,16.10
2023-03-01T19:23:31.406Z,17.40
2023-03-01T19:26:03.689Z,18.53
2023-03-01T19:28:30.519Z,17.47
2023-03-01T19:31:02.370Z,17.83
2023-03-01T19:33:30.491Z,17.03
2023-03-01T19:35:57.301Z,17.07
2023-03-01T19:38:23.938Z,21.27
2023-03-01T19:40:51.095Z,19.80
2023-03-01T19:43:17.721Z,16.70
2023-03-01T19:45:45.895Z,17.00
2023-03-01T19:48:12.971Z,17.30
2023-03-01T19:50:39.674Z,17.73
2023-03-01T19:53:06.585Z,17.87
2023-03-01T19:55:36.354Z,28.10
2023-03-01T19:58:03.428Z,29.87
2023-03-01T20:00:30.050Z,16.80
2023-03-01T20:02:56.792Z,17.90
2023-03-01T20:05:23.584Z,17.23
2023-03-01T20:07:51.111Z,15.70
2023-03-01T20:10:18.178Z,16.03
2023-03-01T20:12:44.808Z,16.63
2023-03-01T20:15:11.519Z,17.17
2023-03-01T20:17:38.071Z,16.93
2023-03-01T20:20:05.168Z,18.30
2023-03-01T20:22:31.770Z,18.53
2023-03-01T20:24:58.414Z,20.17
2023-03-01T20:27:24.973Z,19.37
2023-03-01T20:29:51.540Z,19.03
2023-03-01T20:32:18.212Z,19.43
2023-03-01T20:34:44.851Z,19.20
2023-03-01T20:37:11.935Z,19.70
2023-03-01T20:39:38.535Z,21.13
2023-03-01T20:42:05.169Z,21.10
2023-03-01T20:44:31.821Z,21.00
2023-03-01T20:46:58.708Z,20.97
2023-03-01T20:49:25.340Z,19.30
2023-03-01T20:51:51.962Z,21.80
2023-03-01T20:54:18.670Z,19.37
2023-03-01T20:56:45.304Z,20.33
2023-03-01T20:59:12.827Z,20.27
2023-03-01T21:01:39.858Z,19.93
2023-03-01T21:04:06.877Z,20.70
2023-03-01T21:06:33.844Z,22.43
2023-03-01T21:09:00.584Z,20.87
2023-03-01T21:11:27.501Z,18.67
2023-03-01T21:13:54.762Z,17.93
2023-03-01T21:16:22.204Z,18.27
2023-03-01T21:18:49.166Z,18.07
2023-03-01T21:21:21.197Z,18.70
2023-03-01T21:23:48.253Z,18.73
2023-03-01T21:26:19.293Z,19.10
2023-03-01T21:28:46.353Z,19.63
2023-03-01T21:31:19.673Z,21.52
2023-03-01T21:33:57.405Z,21.47
2023-03-01T21:36:25.347Z,21.13
2023-03-01T21:38:53.281Z,21.43
2023-03-01T21:41:23.408Z,22.10
2023-03-01T21:43:51.629Z,21.90
2023-03-01T21:46:21.136Z,21.07
2023-03-01T21:48:49.556Z,21.07
2023-03-01T21:51:17.577Z,20.77
2023-03-01T21:53:44.452Z,21.90
2023-03-01T21:56:19.449Z,20.50
2023-03-01T21:58:46.275Z,20.80
2023-03-01T22:01:16.531Z,21.13
2023-03-01T22:03:47.019Z,20.17
2023-03-01T22:06:22.804Z,21.88
2023-03-01T22:08:50.813Z,21.53
2023-03-01T22:11:19.696Z,20.03
2023-03-01T22:13:49.374Z,20.73
2023-03-01T22:16:17.738Z,20.60
2023-03-01T22:18:44.473Z,21.47
2023-03-01T22:21:11.606Z,21.80
2023-03-01T22:23:40.077Z,20.83
2023-03-01T22:26:08.228Z,20.77
2023-03-01T22:28:35.416Z,22.20
2023-03-01T22:31:05.798Z,22.10
2023-03-01T22:33:32.697Z,22.97
2023-03-01T22:35:59.349Z,23.77
2023-03-01T22:38:25.953Z,23.40
2023-03-01T22:40:57.562Z,22.47
2023-03-01T22:43:24.196Z,22.40
2023-03-01T22:45:50.930Z,26.83
2023-03-01T22:48:17.636Z,24.10
2023-03-01T22:50:45.984Z,24.23
2023-03-01T22:53:12.631Z,23.67
2023-03-01T22:55:39.297Z,24.17
2023-03-01T22:58:06.184Z,23.90
2023-03-01T23:00:33.001Z,23.17
2023-03-01T23:02:59.821Z,24.20
2023-03-01T23:05:26.538Z,23.77
2023-03-01T23:07:53.472Z,23.37
2023-03-01T23:10:20.068Z,25.40
2023-03-01T23:12:46.615Z,25.30
2023-03-01T23:15:13.237Z,23.47
2023-03-01T23:17:39.825Z,23.97
2023-03-01T23:20:10.338Z,24.48
2023-03-01T23:22:38.128Z,23.03
2023-03-01T23:25:05.684Z,23.07
2023-03-01T23:27:32.274Z,23.30
2023-03-01T23:29:59.707Z,24.20
2023-03-01T23:32:26.386Z,22.27
2023-03-01T23:34:53.009Z,23.33
2023-03-01T23:37:19.563Z,23.20
2023-03-01T23:39:46.172Z,23.53
2023-03-01T23:42:12.703Z,22.27
2023-03-01T23:44:40.788Z,22.27
2023-03-01T23:47:07.452Z,22.93
2023-03-01T23:49:34.117Z,23.13
2023-03-01T23:52:01.894Z,24.07
2023-03-01T23:54:28.768Z,23.07
2023-03-01T23:56:55.421Z,23.67
2023-03-01T23:59:23.558Z,21.97
